createdAt,value
2018-06-11T00:00:52.634Z,18.6
2018-06-11T00:01:54.254Z,18.5
2018-06-11T00:02:55.870Z,18.6
2018-06-11T00:03:57.482Z,18.5
2018-06-11T00:04:59.104Z,18.6
2018-06-11T00:06:00.717Z,18.6
2018-06-11T00:07:02.333Z,18.6
2018-06-11T00:08:03.958Z,18.6
2018-06-11T00:09:05.569Z,18.5
2018-06-11T00:10:07.192Z,18.5
2018-06-11T00:11:08.804Z,18.6
2018-06-11T00:12:10.424Z,18.5
2018-06-11T00:13:12.043Z,18.4
2018-06-11T00:14:13.663Z,18.5
2018-06-11T00:15:15.284Z,18.5
2018-06-11T00:16:16.896Z,18.4
2018-06-11T00:17:18.512Z,18.4
2018-06-11T00:18:20.125Z,18.3
2018-06-11T00:19:21.741Z,18.4
2018-06-11T00:20:23.360Z,18.4
2018-06-11T00:21:24.977Z,18.4
2018-06-11T00:22:26.600Z,18.4
2018-06-11T00:23:28.218Z,18.5
2018-06-11T00:24:29.829Z,18.4
2018-06-11T00:25:31.449Z,18.3
2018-06-11T00:26:33.064Z,18.5
2018-06-11T00:27:34.685Z,18.4
2018-06-11T00:28:36.301Z,18.4
2018-06-11T00:29:37.915Z,18.5
2018-06-11T00:30:39.572Z,18.4
2018-06-11T00:31:41.150Z,18.5
2018-06-11T00:32:42.759Z,18.5
2018-06-11T00:33:44.381Z,18.5
2018-06-11T00:34:45.998Z,18.4
2018-06-11T00:35:47.619Z,18.4
2018-06-11T00:36:49.232Z,18.4
2018-06-11T00:37:50.852Z,18.4
2018-06-11T00:38:52.464Z,18.5
2018-06-11T00:39:54.084Z,18.4
2018-06-11T00:40:55.700Z,18.3
2018-06-11T00:41:57.318Z,18.3
2018-06-11T00:42:58.938Z,18.4
2018-06-11T00:44:00.550Z,18.3
2018-06-11T00:45:02.169Z,18.3
2018-06-11T00:46:03.785Z,18.3
2018-06-11T00:47:05.404Z,18.2
2018-06-11T00:48:07.026Z,18.2
2018-06-11T00:49:08.638Z,18.1
2018-06-11T00:50:10.257Z,18.2
2018-06-11T00:51:11.878Z,18.1
2018-06-11T00:52:13.537Z,18.2
2018-06-11T00:53:15.106Z,18.1
2018-06-11T00:54:16.722Z,18.1
2018-06-11T00:55:18.344Z,18.0
2018-06-11T00:56:19.961Z,18.0
2018-06-11T00:57:21.579Z,18.1
2018-06-11T00:58:23.201Z,18.0
2018-06-11T00:59:24.814Z,18.0
2018-06-11T01:00:26.432Z,18.0
2018-06-11T01:01:28.049Z,18.0
2018-06-11T01:02:29.662Z,18.0
2018-06-11T01:03:31.273Z,17.9
2018-06-11T01:04:32.898Z,18.0
2018-06-11T01:05:34.514Z,18.0
2018-06-11T01:06:36.128Z,17.9
2018-06-11T01:07:37.747Z,18.1
2018-06-11T01:08:39.366Z,17.9
2018-06-11T01:09:40.980Z,18.0
2018-06-11T01:10:42.595Z,17.9
2018-06-11T01:11:44.217Z,17.9
2018-06-11T01:12:45.838Z,18.0
2018-06-11T01:13:47.453Z,17.8
2018-06-11T01:14:49.071Z,17.9
2018-06-11T01:15:50.683Z,17.9
2018-06-11T01:16:52.298Z,18.0
2018-06-11T01:17:53.921Z,18.0
2018-06-11T01:18:55.534Z,17.8
2018-06-11T01:19:57.151Z,17.8
2018-06-11T01:20:58.772Z,17.8
2018-06-11T01:22:00.382Z,17.8
2018-06-11T01:23:02.001Z,17.8
2018-06-11T01:24:04.526Z,17.8
2018-06-11T01:25:06.143Z,17.9
2018-06-11T01:26:07.759Z,17.8
2018-06-11T01:27:09.376Z,17.8
2018-06-11T01:28:10.989Z,17.8
2018-06-11T01:29:12.609Z,17.8
2018-06-11T01:30:14.223Z,17.8
2018-06-11T01:31:15.836Z,17.7
2018-06-11T01:32:17.459Z,17.7
2018-06-11T01:33:19.076Z,17.7
2018-06-11T01:34:20.698Z,17.6
2018-06-11T01:35:22.319Z,17.7
2018-06-11T01:36:23.926Z,17.6
2018-06-11T01:37:25.538Z,17.7
2018-06-11T01:38:27.159Z,17.6
2018-06-11T01:39:28.775Z,17.6
2018-06-11T01:40:30.392Z,17.5
2018-06-11T01:41:32.015Z,17.5
2018-06-11T01:42:33.627Z,17.5
2018-06-11T01:43:35.243Z,17.5
2018-06-11T01:44:36.860Z,17.5
2018-06-11T01:45:38.481Z,17.4
2018-06-11T01:46:40.094Z,17.4
2018-06-11T01:47:41.711Z,17.3
2018-06-11T01:48:43.333Z,17.3
2018-06-11T01:49:44.947Z,17.3
2018-06-11T01:50:46.566Z,17.3
2018-06-11T01:51:48.187Z,17.3
2018-06-11T01:52:49.798Z,17.3
2018-06-11T01:53:51.415Z,17.1
2018-06-11T01:54:53.032Z,17.2
2018-06-11T01:55:54.649Z,17.2
2018-06-11T01:56:56.269Z,17.0
2018-06-11T01:57:57.886Z,17.2
2018-06-11T01:58:59.501Z,17.0
2018-06-11T02:00:01.123Z,17.1
2018-06-11T02:01:02.743Z,17.0
2018-06-11T02:02:04.359Z,16.9
2018-06-11T02:03:05.982Z,16.9
2018-06-11T02:04:07.592Z,17.0
2018-06-11T02:05:09.211Z,17.0
2018-06-11T02:06:10.831Z,16.9
2018-06-11T02:07:12.445Z,16.9
2018-06-11T02:08:14.072Z,17.0
2018-06-11T02:09:15.684Z,17.0
2018-06-11T02:10:17.307Z,16.9
2018-06-11T02:11:18.923Z,17.0
2018-06-11T02:12:20.535Z,17.0
2018-06-11T02:13:22.156Z,16.9
2018-06-11T02:14:23.771Z,17.0
2018-06-11T02:15:25.389Z,17.0
2018-06-11T02:16:27.013Z,17.1
2018-06-11T02:17:28.633Z,17.1
2018-06-11T02:18:30.247Z,17.1
2018-06-11T02:19:31.868Z,17.0
2018-06-11T02:20:33.487Z,17.1
2018-06-11T02:21:35.106Z,17.1
2018-06-11T02:22:36.725Z,17.1
2018-06-11T02:23:38.344Z,17.2
2018-06-11T02:24:39.967Z,17.2
2018-06-11T02:25:41.581Z,17.2
2018-06-11T02:26:43.203Z,17.2
2018-06-11T02:27:44.812Z,17.3
2018-06-11T02:28:46.434Z,17.2
2018-06-11T02:29:48.049Z,17.3
2018-06-11T02:30:49.671Z,17.2
2018-06-11T02:31:51.286Z,17.3
2018-06-11T02:32:52.955Z,17.3
2018-06-11T02:33:54.516Z,17.3
2018-06-11T02:34:56.136Z,17.3
2018-06-11T02:35:57.750Z,17.3
2018-06-11T02:36:59.368Z,17.4
2018-06-11T02:38:00.990Z,17.3
2018-06-11T02:39:02.606Z,17.4
2018-06-11T02:40:04.216Z,17.4
2018-06-11T02:41:05.833Z,17.5
2018-06-11T02:42:07.455Z,17.4
2018-06-11T02:43:09.069Z,17.4
2018-06-11T02:44:10.692Z,17.4
2018-06-11T02:45:12.309Z,17.4
2018-06-11T02:46:13.933Z,17.4
2018-06-11T02:47:15.546Z,17.5
2018-06-11T02:48:17.159Z,17.5
2018-06-11T02:49:18.779Z,17.6
2018-06-11T02:50:20.392Z,17.5
2018-06-11T02:51:22.010Z,17.6
2018-06-11T02:52:23.631Z,17.7
2018-06-11T02:53:25.246Z,17.5
2018-06-11T02:54:26.864Z,17.5
2018-06-11T02:55:28.479Z,17.5
2018-06-11T02:56:30.092Z,17.5
2018-06-11T02:57:31.707Z,17.5
2018-06-11T02:58:33.328Z,17.5
2018-06-11T02:59:34.947Z,17.5
2018-06-11T03:00:37.035Z,17.5
2018-06-11T03:01:39.198Z,17.5
2018-06-11T03:02:41.371Z,17.5
2018-06-11T03:03:43.440Z,17.6
2018-06-11T03:04:45.066Z,17.5
2018-06-11T03:05:46.687Z,17.5
2018-06-11T03:06:48.332Z,17.4
2018-06-11T03:07:49.948Z,17.5
2018-06-11T03:08:51.566Z,17.5
2018-06-11T03:09:53.183Z,17.5
2018-06-11T03:10:54.798Z,17.5
2018-06-11T03:11:56.423Z,17.5
2018-06-11T03:12:58.035Z,17.5
2018-06-11T03:13:59.655Z,17.4
2018-06-11T03:15:01.280Z,17.4
2018-06-11T03:16:02.896Z,17.4
2018-06-11T03:17:04.518Z,17.3
2018-06-11T03:18:06.140Z,17.5
2018-06-11T03:19:07.753Z,17.5
2018-06-11T03:20:09.377Z,17.5
2018-06-11T03:21:10.994Z,17.4
2018-06-11T03:22:12.615Z,17.4
2018-06-11T03:23:14.234Z,17.4
2018-06-11T03:24:15.850Z,17.4
2018-06-11T03:25:17.473Z,17.4
2018-06-11T03:26:19.096Z,17.4
2018-06-11T03:27:20.711Z,17.4
2018-06-11T03:28:22.336Z,17.4
2018-06-11T03:29:23.955Z,17.4
2018-06-11T03:30:25.571Z,17.4
2018-06-11T03:31:27.194Z,17.4
2018-06-11T03:32:28.818Z,17.5
2018-06-11T03:33:30.433Z,17.5
2018-06-11T03:34:32.052Z,17.4
2018-06-11T03:35:33.678Z,17.5
2018-06-11T03:36:35.292Z,17.4
2018-06-11T03:37:36.916Z,17.4
2018-06-11T03:38:38.536Z,17.4
2018-06-11T03:39:40.152Z,17.5
2018-06-11T03:40:41.778Z,17.5
2018-06-11T03:41:43.392Z,17.5
2018-06-11T03:42:45.013Z,17.5
2018-06-11T03:43:46.637Z,17.5
2018-06-11T03:44:48.253Z,17.6
2018-06-11T03:45:49.875Z,17.5
2018-06-11T03:46:51.496Z,17.6
2018-06-11T03:47:53.112Z,17.5
2018-06-11T03:48:54.727Z,17.4
2018-06-11T03:49:56.352Z,17.6
2018-06-11T03:50:57.977Z,17.5
2018-06-11T03:51:59.591Z,17.5
2018-06-11T03:53:01.212Z,17.6
2018-06-11T03:54:02.829Z,17.5
2018-06-11T03:55:04.445Z,17.5
2018-06-11T03:56:06.063Z,17.6
2018-06-11T03:57:07.682Z,17.5
2018-06-11T03:58:09.306Z,17.5
2018-06-11T03:59:10.927Z,17.6
2018-06-11T04:00:12.542Z,17.7
2018-06-11T04:01:14.167Z,17.6
2018-06-11T04:02:15.785Z,17.6
2018-06-11T04:03:17.408Z,17.6
2018-06-11T04:04:19.033Z,17.6
2018-06-11T04:05:20.655Z,17.7
2018-06-11T04:06:22.276Z,17.7
2018-06-11T04:07:23.894Z,17.6
2018-06-11T04:08:25.520Z,17.6
2018-06-11T04:09:27.135Z,17.6
2018-06-11T04:10:28.756Z,17.6
2018-06-11T04:11:30.382Z,17.7
2018-06-11T04:12:32.008Z,17.6
2018-06-11T04:13:33.628Z,17.7
2018-06-11T04:14:35.249Z,17.6
2018-06-11T04:15:36.867Z,17.7
2018-06-11T04:16:38.497Z,17.6
2018-06-11T04:17:40.119Z,17.6
2018-06-11T04:18:41.744Z,17.7
2018-06-11T04:19:43.369Z,17.6
2018-06-11T04:20:44.988Z,17.7
2018-06-11T04:21:46.601Z,17.7
2018-06-11T04:22:48.228Z,17.7
2018-06-11T04:23:49.851Z,17.7
2018-06-11T04:24:51.471Z,17.7
2018-06-11T04:25:53.098Z,17.7
2018-06-11T04:26:54.719Z,17.8
2018-06-11T04:27:56.338Z,17.8
2018-06-11T04:28:57.960Z,17.7
2018-06-11T04:29:59.583Z,17.8
2018-06-11T04:31:01.201Z,17.7
2018-06-11T04:32:02.825Z,17.9
2018-06-11T04:33:04.450Z,17.8
2018-06-11T04:34:06.065Z,17.8
2018-06-11T04:35:07.686Z,17.8
2018-06-11T04:36:09.306Z,17.8
2018-06-11T04:37:10.929Z,17.8
2018-06-11T04:38:12.555Z,17.9
2018-06-11T04:39:14.172Z,17.9
2018-06-11T04:40:15.793Z,17.9
2018-06-11T04:41:17.417Z,17.7
2018-06-11T04:42:19.033Z,17.7
2018-06-11T04:43:20.662Z,17.9
2018-06-11T04:44:22.292Z,17.8
2018-06-11T04:45:23.975Z,17.8
2018-06-11T04:46:25.526Z,17.9
2018-06-11T04:47:27.152Z,17.9
2018-06-11T04:48:28.776Z,17.8
2018-06-11T04:49:30.395Z,17.9
2018-06-11T04:50:32.023Z,17.9
2018-06-11T04:51:33.640Z,17.9
2018-06-11T04:52:35.262Z,17.8
2018-06-11T04:53:36.888Z,17.9
2018-06-11T04:54:38.509Z,17.9
2018-06-11T04:55:40.127Z,18.0
2018-06-11T04:56:41.752Z,17.9
2018-06-11T04:57:43.369Z,17.9
2018-06-11T04:58:44.992Z,17.9
2018-06-11T04:59:46.616Z,17.9
2018-06-11T05:00:48.235Z,17.9
2018-06-11T05:01:49.857Z,18.0
2018-06-11T05:02:51.483Z,18.0
2018-06-11T05:03:53.100Z,18.0
2018-06-11T05:04:54.718Z,18.1
2018-06-11T05:05:56.344Z,18.1
2018-06-11T05:06:57.966Z,18.1
2018-06-11T05:07:59.588Z,18.2
2018-06-11T05:09:01.217Z,18.2
2018-06-11T05:10:02.844Z,18.2
2018-06-11T05:11:04.451Z,18.3
2018-06-11T05:12:06.069Z,18.3
2018-06-11T05:13:07.696Z,18.4
2018-06-11T05:14:09.322Z,18.5
2018-06-11T05:15:10.951Z,18.5
2018-06-11T05:16:12.572Z,18.5
2018-06-11T05:17:14.193Z,18.6
2018-06-11T05:18:15.811Z,18.5
2018-06-11T05:19:17.431Z,18.6
2018-06-11T05:20:19.059Z,18.6
2018-06-11T05:21:20.686Z,18.6
2018-06-11T05:22:22.304Z,18.6
2018-06-11T05:23:23.940Z,18.6
2018-06-11T05:24:25.549Z,18.6
2018-06-11T05:25:27.167Z,18.7
2018-06-11T05:26:28.793Z,18.7
2018-06-11T05:27:30.411Z,18.7
2018-06-11T05:28:32.035Z,18.7
2018-06-11T05:29:33.654Z,18.7
2018-06-11T05:30:35.281Z,18.7
2018-06-11T05:31:36.907Z,18.8
2018-06-11T05:32:38.521Z,18.7
2018-06-11T05:33:40.146Z,18.8
2018-06-11T05:34:41.784Z,18.7
2018-06-11T05:35:43.392Z,18.8
2018-06-11T05:36:45.012Z,18.7
2018-06-11T05:37:46.639Z,18.7
2018-06-11T05:38:48.257Z,18.7
2018-06-11T05:39:49.877Z,18.7
2018-06-11T05:40:51.505Z,18.7
2018-06-11T05:41:53.126Z,18.8
2018-06-11T05:42:54.758Z,18.9
2018-06-11T05:43:56.379Z,18.9
2018-06-11T05:44:58.008Z,18.9
2018-06-11T05:45:59.628Z,18.9
2018-06-11T05:47:01.248Z,18.8
2018-06-11T05:48:02.922Z,18.8
2018-06-11T05:49:04.495Z,18.7
2018-06-11T05:50:06.115Z,18.8
2018-06-11T05:51:07.737Z,18.8
2018-06-11T05:52:09.359Z,18.9
2018-06-11T05:53:10.988Z,18.9
2018-06-11T05:54:12.613Z,19.1
2018-06-11T05:55:14.229Z,19.2
2018-06-11T05:56:15.855Z,19.2
2018-06-11T05:57:17.476Z,19.3
2018-06-11T05:58:19.099Z,19.2
2018-06-11T05:59:20.726Z,19.3
2018-06-11T06:00:22.346Z,19.4
2018-06-11T06:01:23.973Z,19.4
2018-06-11T06:02:25.593Z,19.4
2018-06-11T06:03:27.216Z,19.5
2018-06-11T06:04:28.836Z,19.4
2018-06-11T06:05:30.456Z,19.5
2018-06-11T06:06:32.077Z,19.4
2018-06-11T06:07:33.705Z,19.6
2018-06-11T06:08:35.328Z,19.6
2018-06-11T06:09:36.944Z,19.7
2018-06-11T06:10:38.565Z,19.7
2018-06-11T06:11:40.191Z,19.7
2018-06-11T06:12:41.813Z,19.8
2018-06-11T06:13:43.441Z,19.9
2018-06-11T06:14:45.068Z,19.9
2018-06-11T06:15:46.682Z,20.1
2018-06-11T06:16:48.305Z,20.1
2018-06-11T06:17:49.925Z,20.1
2018-06-11T06:18:51.552Z,20.2
2018-06-11T06:19:53.173Z,20.3
2018-06-11T06:20:54.802Z,20.3
2018-06-11T06:21:56.429Z,20.3
2018-06-11T06:22:58.047Z,20.4
2018-06-11T06:23:59.669Z,20.5
2018-06-11T06:25:01.286Z,20.5
2018-06-11T06:26:02.913Z,20.5
2018-06-11T06:27:04.540Z,20.5
2018-06-11T06:28:06.161Z,20.5
2018-06-11T06:29:07.791Z,20.4
2018-06-11T06:30:09.404Z,20.5
2018-06-11T06:31:11.026Z,20.4
2018-06-11T06:32:12.658Z,20.6
2018-06-11T06:33:14.278Z,20.7
2018-06-11T06:34:15.980Z,20.7
2018-06-11T06:35:17.529Z,20.6
2018-06-11T06:36:19.151Z,20.7
2018-06-11T06:37:20.803Z,20.6
2018-06-11T06:38:22.393Z,20.6
2018-06-11T06:39:24.034Z,20.6
2018-06-11T06:40:25.659Z,20.5
2018-06-11T06:41:27.283Z,20.5
2018-06-11T06:42:28.904Z,20.5
2018-06-11T06:43:30.532Z,20.6
2018-06-11T06:44:32.151Z,20.5
2018-06-11T06:45:33.772Z,20.5
2018-06-11T06:46:35.399Z,20.5
2018-06-11T06:47:37.019Z,20.5
2018-06-11T06:48:38.647Z,20.5
2018-06-11T06:49:40.266Z,20.5
2018-06-11T06:50:41.892Z,20.6
2018-06-11T06:51:43.512Z,20.6
2018-06-11T06:52:45.135Z,20.8
2018-06-11T06:53:46.761Z,20.7
2018-06-11T06:54:48.381Z,20.8
2018-06-11T06:55:50.004Z,20.8
2018-06-11T06:56:51.625Z,21.0
2018-06-11T06:57:53.254Z,21.0
2018-06-11T06:58:54.879Z,21.2
2018-06-11T06:59:56.504Z,21.0
2018-06-11T07:00:58.124Z,21.2
2018-06-11T07:01:59.756Z,21.4
2018-06-11T07:03:01.377Z,21.6
2018-06-11T07:04:03.003Z,21.7
2018-06-11T07:05:04.634Z,21.6
2018-06-11T07:06:06.263Z,21.7
2018-06-11T07:07:07.881Z,21.8
2018-06-11T07:08:09.512Z,22.1
2018-06-11T07:09:11.137Z,22.2
2018-06-11T07:10:12.761Z,22.3
2018-06-11T07:11:14.389Z,22.3
2018-06-11T07:12:16.015Z,22.1
2018-06-11T07:13:17.637Z,22.3
2018-06-11T07:14:19.259Z,22.2
2018-06-11T07:15:20.886Z,22.2
2018-06-11T07:16:22.509Z,22.3
2018-06-11T07:17:24.130Z,22.1
2018-06-11T07:18:25.763Z,22.0
2018-06-11T07:19:27.382Z,22.1
2018-06-11T07:20:29.005Z,22.1
2018-06-11T07:21:30.633Z,22.1
2018-06-11T07:22:32.252Z,22.0
2018-06-11T07:23:33.880Z,22.0
2018-06-11T07:24:35.503Z,22.2
2018-06-11T07:25:37.137Z,22.4
2018-06-11T07:26:38.769Z,22.4
2018-06-11T07:27:40.389Z,22.6
2018-06-11T07:28:42.018Z,22.6
2018-06-11T07:29:43.641Z,22.6
2018-06-11T07:30:45.271Z,22.6
2018-06-11T07:31:46.892Z,22.5
2018-06-11T07:32:48.518Z,22.5
2018-06-11T07:33:50.148Z,22.4
2018-06-11T07:34:51.813Z,22.4
2018-06-11T07:35:53.392Z,22.5
2018-06-11T07:36:55.020Z,22.5
2018-06-11T07:37:56.641Z,22.3
2018-06-11T07:38:58.269Z,22.4
2018-06-11T07:39:59.892Z,22.3
2018-06-11T07:41:01.525Z,22.5
2018-06-11T07:42:03.147Z,22.6
2018-06-11T07:43:04.772Z,22.7
2018-06-11T07:44:06.395Z,23.0
2018-06-11T07:45:08.024Z,23.1
2018-06-11T07:46:09.651Z,23.4
2018-06-11T07:47:11.280Z,23.8
2018-06-11T07:48:12.906Z,23.9
2018-06-11T07:49:14.537Z,24.3
2018-06-11T07:50:16.157Z,24.3
2018-06-11T07:51:17.786Z,24.3
2018-06-11T07:52:19.413Z,24.7
2018-06-11T07:53:21.036Z,25.3
2018-06-11T07:54:22.670Z,26.2
2018-06-11T07:55:24.289Z,26.8
2018-06-11T07:56:25.914Z,27.4
2018-06-11T07:57:27.540Z,27.8
2018-06-11T07:58:29.174Z,27.1
2018-06-11T07:59:30.805Z,26.5
2018-06-11T08:00:32.430Z,26.5
2018-06-11T08:01:34.070Z,27.0
2018-06-11T08:02:35.694Z,26.4
2018-06-11T08:03:37.318Z,25.8
2018-06-11T08:04:38.952Z,25.7
2018-06-11T08:05:40.576Z,25.8
2018-06-11T08:06:42.209Z,25.9
2018-06-11T08:07:43.836Z,25.7
2018-06-11T08:08:45.464Z,26.0
2018-06-11T08:09:47.097Z,26.1
2018-06-11T08:10:48.722Z,26.2
2018-06-11T08:11:50.349Z,26.4
2018-06-11T08:12:51.984Z,26.5
2018-06-11T08:13:53.619Z,26.4
2018-06-11T08:14:55.237Z,26.3
2018-06-11T08:15:56.871Z,26.5
2018-06-11T08:16:58.498Z,27.1
2018-06-11T08:18:00.125Z,27.2
2018-06-11T08:19:01.762Z,27.5
2018-06-11T08:20:03.380Z,27.4
2018-06-11T08:21:05.032Z,27.4
2018-06-11T08:22:06.645Z,27.5
2018-06-11T08:23:08.277Z,28.6
2018-06-11T08:24:09.912Z,28.4
2018-06-11T08:25:11.536Z,28.3
2018-06-11T08:26:13.167Z,28.2
2018-06-11T08:27:14.801Z,27.7
2018-06-11T08:28:16.430Z,27.8
2018-06-11T08:29:18.062Z,27.9
2018-06-11T08:30:19.688Z,28.6
2018-06-11T08:31:21.322Z,29.0
2018-06-11T08:32:22.948Z,28.8
2018-06-11T08:33:24.581Z,28.4
2018-06-11T08:34:26.216Z,28.7
2018-06-11T08:35:27.847Z,28.8
2018-06-11T08:36:29.482Z,28.8
2018-06-11T08:37:31.109Z,28.1
2018-06-11T08:38:32.741Z,28.4
2018-06-11T08:39:34.379Z,28.5
2018-06-11T08:40:36.003Z,29.2
2018-06-11T08:41:37.637Z,29.5
2018-06-11T08:42:39.269Z,29.9
2018-06-11T08:43:40.899Z,28.9
2018-06-11T08:44:42.540Z,29.1
2018-06-11T08:45:44.170Z,29.0
2018-06-11T08:46:45.802Z,28.3
2018-06-11T08:47:47.431Z,28.5
2018-06-11T08:48:49.061Z,29.3
2018-06-11T08:49:50.697Z,30.3
2018-06-11T08:50:52.327Z,30.9
2018-06-11T08:51:53.961Z,31.6
2018-06-11T08:52:55.598Z,32.7
2018-06-11T08:53:57.225Z,33.5
2018-06-11T08:54:58.859Z,33.8
2018-06-11T08:56:00.491Z,33.4
2018-06-11T08:57:02.127Z,32.7
2018-06-11T08:58:03.766Z,32.2
2018-06-11T08:59:05.397Z,32.0
2018-06-11T09:00:07.046Z,33.0
2018-06-11T09:01:08.667Z,33.0
2018-06-11T09:02:10.296Z,33.8
2018-06-11T09:03:11.930Z,33.3
2018-06-11T09:04:13.569Z,32.7
2018-06-11T09:05:15.207Z,32.6
2018-06-11T09:06:16.837Z,32.8
2018-06-11T09:07:18.488Z,33.2
2018-06-11T09:08:20.115Z,32.7
2018-06-11T09:09:21.746Z,32.5
2018-06-11T09:10:23.384Z,31.1
2018-06-11T09:11:25.019Z,30.8
2018-06-11T09:12:26.657Z,30.9
2018-06-11T09:13:28.295Z,30.5
2018-06-11T09:14:29.924Z,30.4
2018-06-11T09:15:31.560Z,30.4
2018-06-11T09:16:33.194Z,30.4
2018-06-11T09:17:34.825Z,30.5
2018-06-11T09:18:36.462Z,30.5
2018-06-11T09:19:38.100Z,30.4
2018-06-11T09:20:39.737Z,30.1
2018-06-11T09:21:41.369Z,30.3
2018-06-11T09:22:42.999Z,30.2
2018-06-11T09:23:44.636Z,30.3
2018-06-11T09:24:46.264Z,30.5
2018-06-11T09:25:47.901Z,30.5
2018-06-11T09:26:49.532Z,30.5
2018-06-11T09:27:51.172Z,30.3
2018-06-11T09:28:52.802Z,30.4
2018-06-11T09:29:54.429Z,30.6
2018-06-11T09:30:56.638Z,30.7
2018-06-11T09:31:58.212Z,30.9
2018-06-11T09:32:59.852Z,31.3
2018-06-11T09:34:01.489Z,31.5
2018-06-11T09:35:03.115Z,31.4
2018-06-11T09:36:04.755Z,31.1
2018-06-11T09:37:06.387Z,31.5
2018-06-11T09:38:08.067Z,31.8
2018-06-11T09:39:09.654Z,32.0
2018-06-11T09:40:11.291Z,32.2
2018-06-11T09:41:12.922Z,32.6
2018-06-11T09:42:14.555Z,32.8
2018-06-11T09:43:16.195Z,33.1
2018-06-11T09:44:17.910Z,32.9
2018-06-11T09:45:19.466Z,33.2
2018-06-11T09:46:21.108Z,33.2
2018-06-11T09:47:22.737Z,33.2
2018-06-11T09:48:24.371Z,33.1
2018-06-11T09:49:26.025Z,32.8
2018-06-11T09:50:27.648Z,32.8
2018-06-11T09:51:29.283Z,32.8
2018-06-11T09:52:30.912Z,32.9
2018-06-11T09:53:32.549Z,33.0
2018-06-11T09:54:34.185Z,33.2
2018-06-11T09:55:35.820Z,33.6
2018-06-11T09:56:37.459Z,34.4
2018-06-11T09:57:39.098Z,34.5
2018-06-11T09:58:40.735Z,34.4
2018-06-11T09:59:42.366Z,35.5
2018-06-11T10:00:44.003Z,35.6
2018-06-11T10:01:45.640Z,35.5
2018-06-11T10:02:47.272Z,35.4
2018-06-11T10:03:48.916Z,35.4
2018-06-11T10:04:50.556Z,35.4
2018-06-11T10:05:52.187Z,34.8
2018-06-11T10:06:53.822Z,34.7
2018-06-11T10:07:55.460Z,34.9
2018-06-11T10:08:57.100Z,35.2
2018-06-11T10:09:58.734Z,35.3
2018-06-11T10:11:00.375Z,35.7
2018-06-11T10:12:02.013Z,36.1
2018-06-11T10:13:03.648Z,36.5
2018-06-11T10:14:05.287Z,36.9
2018-06-11T10:15:06.918Z,36.5
2018-06-11T10:16:08.563Z,37.0
2018-06-11T10:17:10.204Z,37.0
2018-06-11T10:18:11.839Z,36.3
2018-06-11T10:19:13.510Z,36.9
2018-06-11T10:20:15.119Z,37.1
2018-06-11T10:21:16.758Z,37.1
2018-06-11T10:22:18.410Z,36.7
2018-06-11T10:23:20.046Z,36.1
2018-06-11T10:24:21.683Z,36.7
2018-06-11T10:25:23.322Z,36.8
2018-06-11T10:26:24.967Z,36.9
2018-06-11T10:27:26.608Z,36.9
2018-06-11T10:28:28.251Z,37.1
2018-06-11T10:29:29.913Z,36.8
2018-06-11T10:30:31.557Z,36.6
2018-06-11T10:31:33.198Z,36.3
2018-06-11T10:32:34.836Z,36.1
2018-06-11T10:33:36.482Z,36.1
2018-06-11T10:34:38.116Z,36.4
2018-06-11T10:35:39.752Z,35.8
2018-06-11T10:36:41.400Z,35.7
2018-06-11T10:37:43.035Z,35.6
2018-06-11T10:38:44.682Z,35.7
2018-06-11T10:39:46.322Z,35.7
2018-06-11T10:40:47.964Z,36.1
2018-06-11T10:41:49.606Z,36.4
2018-06-11T10:42:51.242Z,36.9
2018-06-11T10:43:52.878Z,36.4
2018-06-11T10:44:54.526Z,36.8
2018-06-11T10:45:56.160Z,37.2
2018-06-11T10:46:57.800Z,36.1
2018-06-11T10:47:59.439Z,36.7
2018-06-11T10:49:01.083Z,36.6
2018-06-11T10:50:02.726Z,35.6
2018-06-11T10:51:04.365Z,36.2
2018-06-11T10:52:06.017Z,35.6
2018-06-11T10:53:07.652Z,36.3
2018-06-11T10:54:09.294Z,36.9
2018-06-11T10:55:10.940Z,36.5
2018-06-11T10:56:12.573Z,36.9
2018-06-11T10:57:14.211Z,37.3
2018-06-11T10:58:15.854Z,37.5
2018-06-11T10:59:17.495Z,37.5
2018-06-11T11:00:19.147Z,37.8
2018-06-11T11:01:20.784Z,37.4
2018-06-11T11:02:22.427Z,37.1
2018-06-11T11:03:24.059Z,37.5
2018-06-11T11:04:25.755Z,38.0
2018-06-11T11:05:27.342Z,38.5
2018-06-11T11:06:28.987Z,38.6
2018-06-11T11:07:30.628Z,38.7
2018-06-11T11:08:32.265Z,38.9
2018-06-11T11:09:33.914Z,38.8
2018-06-11T11:10:35.554Z,39.1
2018-06-11T11:11:37.191Z,39.3
2018-06-11T11:12:38.907Z,39.4
2018-06-11T11:13:40.470Z,39.6
2018-06-11T11:14:42.117Z,38.9
2018-06-11T11:15:43.757Z,38.9
2018-06-11T11:16:45.405Z,38.3
2018-06-11T11:17:47.039Z,38.5
2018-06-11T11:18:48.678Z,37.5
2018-06-11T11:19:50.315Z,37.6
2018-06-11T11:20:51.957Z,37.7
2018-06-11T11:21:53.620Z,37.6
2018-06-11T11:22:55.244Z,38.1
2018-06-11T11:23:56.912Z,38.0
2018-06-11T11:24:58.527Z,38.3
2018-06-11T11:26:00.170Z,38.7
2018-06-11T11:27:01.815Z,38.8
2018-06-11T11:28:03.460Z,38.9
2018-06-11T11:29:05.097Z,38.9
2018-06-11T11:30:06.747Z,38.9
2018-06-11T11:31:08.388Z,39.0
2018-06-11T11:32:10.032Z,38.6
2018-06-11T11:33:11.669Z,38.5
2018-06-11T11:34:13.306Z,38.5
2018-06-11T11:35:14.953Z,38.5
2018-06-11T11:36:16.591Z,38.5
2018-06-11T11:37:18.241Z,38.6
2018-06-11T11:38:19.883Z,38.3
2018-06-11T11:39:21.521Z,37.8
2018-06-11T11:40:23.161Z,38.1
2018-06-11T11:41:24.797Z,38.2
2018-06-11T11:42:26.442Z,38.2
2018-06-11T11:43:28.081Z,38.1
2018-06-11T11:44:29.724Z,37.9
2018-06-11T11:45:31.370Z,38.2
2018-06-11T11:46:32.997Z,38.6
2018-06-11T11:47:34.640Z,38.7
2018-06-11T11:48:36.281Z,39.0
2018-06-11T11:49:37.922Z,39.0
2018-06-11T11:50:39.566Z,39.1
2018-06-11T11:51:41.213Z,39.4
2018-06-11T11:52:42.857Z,39.6
2018-06-11T11:53:44.492Z,39.7
2018-06-11T11:54:46.137Z,40.0
2018-06-11T11:55:47.777Z,39.9
2018-06-11T11:56:49.417Z,39.6
2018-06-11T11:57:51.063Z,39.7
2018-06-11T11:58:52.698Z,39.5
2018-06-11T11:59:54.347Z,39.5
2018-06-11T12:00:55.988Z,39.4
2018-06-11T12:01:57.621Z,39.5
2018-06-11T12:02:59.266Z,39.6
2018-06-11T12:04:00.908Z,39.5
2018-06-11T12:05:02.549Z,39.6
2018-06-11T12:06:04.199Z,39.5
2018-06-11T12:07:05.835Z,39.6
2018-06-11T12:08:07.475Z,39.7
2018-06-11T12:09:09.123Z,39.9
2018-06-11T12:10:10.758Z,40.2
2018-06-11T12:11:12.399Z,40.1
2018-06-11T12:12:14.048Z,39.7
2018-06-11T12:13:15.689Z,39.6
2018-06-11T12:14:17.331Z,38.9
2018-06-11T12:15:18.968Z,38.4
2018-06-11T12:16:20.610Z,38.8
2018-06-11T12:17:22.255Z,38.9
2018-06-11T12:18:23.896Z,39.0
2018-06-11T12:19:25.533Z,38.9
2018-06-11T12:20:27.178Z,39.2
2018-06-11T12:21:28.825Z,39.5
2018-06-11T12:22:30.454Z,39.5
2018-06-11T12:23:32.100Z,39.5
2018-06-11T12:24:33.746Z,39.7
2018-06-11T12:25:35.386Z,39.4
2018-06-11T12:26:37.031Z,39.4
2018-06-11T12:27:38.673Z,39.7
2018-06-11T12:28:40.309Z,39.8
2018-06-11T12:29:41.951Z,40.1
2018-06-11T12:30:43.591Z,40.3
2018-06-11T12:31:45.254Z,40.5
2018-06-11T12:32:46.885Z,40.3
2018-06-11T12:33:48.524Z,40.4
2018-06-11T12:34:50.166Z,39.5
2018-06-11T12:35:51.805Z,39.3
2018-06-11T12:36:53.447Z,39.4
2018-06-11T12:37:55.088Z,39.5
2018-06-11T12:38:56.730Z,39.6
2018-06-11T12:39:58.370Z,39.8
2018-06-11T12:41:00.014Z,39.6
2018-06-11T12:42:01.658Z,39.8
2018-06-11T12:43:03.304Z,39.9
2018-06-11T12:44:04.937Z,40.1
2018-06-11T12:45:06.593Z,40.1
2018-06-11T12:46:08.227Z,40.3
2018-06-11T12:47:09.869Z,40.1
2018-06-11T12:48:11.510Z,39.9
2018-06-11T12:49:13.148Z,39.9
2018-06-11T12:50:14.796Z,39.8
2018-06-11T12:51:16.432Z,39.5
2018-06-11T12:52:18.071Z,39.0
2018-06-11T12:53:19.710Z,38.9
2018-06-11T12:54:21.356Z,39.1
2018-06-11T12:55:22.995Z,38.7
2018-06-11T12:56:24.685Z,38.8
2018-06-11T12:57:26.278Z,38.8
2018-06-11T12:58:27.913Z,38.8
2018-06-11T12:59:29.549Z,39.2
2018-06-11T13:00:31.192Z,39.3
2018-06-11T13:01:32.847Z,39.4
2018-06-11T13:02:34.473Z,39.1
2018-06-11T13:03:36.122Z,38.8
2018-06-11T13:04:37.753Z,38.7
2018-06-11T13:05:39.392Z,38.3
2018-06-11T13:06:41.025Z,38.3
2018-06-11T13:07:42.665Z,38.0
2018-06-11T13:08:44.302Z,38.3
2018-06-11T13:09:45.939Z,38.7
2018-06-11T13:10:47.584Z,39.0
2018-06-11T13:11:49.226Z,39.4
2018-06-11T13:12:50.863Z,39.4
2018-06-11T13:13:52.507Z,38.8
2018-06-11T13:14:54.138Z,38.5
2018-06-11T13:15:55.788Z,38.6
2018-06-11T13:16:57.431Z,38.7
2018-06-11T13:17:59.071Z,39.1
2018-06-11T13:19:00.709Z,39.0
2018-06-11T13:20:02.346Z,38.4
2018-06-11T13:21:03.981Z,38.7
2018-06-11T13:22:05.619Z,38.3
2018-06-11T13:23:07.259Z,38.3
2018-06-11T13:24:08.895Z,38.0
2018-06-11T13:25:10.538Z,37.5
2018-06-11T13:26:12.175Z,37.3
2018-06-11T13:27:13.814Z,37.3
2018-06-11T13:28:15.448Z,37.4
2018-06-11T13:29:17.084Z,37.6
2018-06-11T13:30:18.723Z,37.1
2018-06-11T13:31:20.359Z,36.9
2018-06-11T13:32:22.000Z,36.6
2018-06-11T13:33:23.637Z,36.2
2018-06-11T13:34:25.272Z,36.1
2018-06-11T13:35:26.908Z,35.8
2018-06-11T13:36:28.543Z,35.9
2018-06-11T13:37:30.181Z,36.0
2018-06-11T13:38:31.820Z,35.8
2018-06-11T13:39:33.456Z,35.5
2018-06-11T13:40:35.105Z,35.5